Time;durP1;ratioP1;P1;durP2;ratioP2;P2;SDS_P1;SDS_P2;PMS_P1;PMS_P2;Temp;Humidity;BMP_temperature;BMP_pressure;BME280_temperature;BME280_humidity;BME280_pressure;Samples;Min_cycle;Max_cycle;Signal;HPM_P1;HPM_P2
2024/02/18 00:01:44;;;;;;;;;;;5.50;99.90;;;;;;4986051;28;20029;-78
2024/02/18 00:04:09;;;;;;;;;;;5.40;99.90;;;;;;4976736;28;19925;-77
2024/02/18 00:06:35;;;;;;;;;;;5.40;99.90;;;;;;4952693;28;20234;-79
2024/02/18 00:09:00;;;;;;;;;;;5.40;99.90;;;;;;4946783;28;19960;-78
2024/02/18 00:11:26;;;;;;;;;;;5.40;99.90;;;;;;4978003;28;19949;-78
2024/02/18 00:13:52;;;;;;;;;;;5.40;99.90;;;;;;4964147;28;19917;-78
2024/02/18 00:16:17;;;;;;;;;;;5.40;99.90;;;;;;5005651;28;19977;-77
2024/02/18 00:18:43;;;;;;;;;;;5.30;99.90;;;;;;5014320;28;19918;-77
2024/02/18 00:21:14;;;;;;;;;;;5.30;99.90;;;;;;4981537;28;20479;-78
2024/02/18 00:23:40;;;;;;;;;;;5.30;99.90;;;;;;4982284;28;19917;-78
2024/02/18 00:26:06;;;;;;;;;;;5.30;99.90;;;;;;4981107;28;20341;-77
2024/02/18 00:28:32;;;;;;;;;;;5.20;99.90;;;;;;4998290;28;19975;-77
2024/02/18 00:30:57;;;;;;;;;;;5.20;99.90;;;;;;4964136;28;20231;-78
2024/02/18 00:33:23;;;;;;;;;;;5.10;99.90;;;;;;4980124;28;20322;-78
2024/02/18 00:35:49;;;;;;;;;;;5.10;99.90;;;;;;4978670;28;20353;-77
2024/02/18 00:38:15;;;;;;;;;;;5.00;99.90;;;;;;4979832;28;20005;-77
2024/02/18 00:40:40;;;;;;;;;;;5.00;99.90;;;;;;5012020;28;19914;-77
2024/02/18 00:43:06;;;;;;;;;;;5.00;99.90;;;;;;5003434;28;19944;-77
2024/02/18 00:45:33;;;;;;;;;;;5.00;99.90;;;;;;4976518;28;20460;-78
2024/02/18 00:47:59;;;;;;;;;;;4.90;99.90;;;;;;4971252;28;19928;-77
2024/02/18 00:50:25;;;;;;;;;;;4.90;99.90;;;;;;4991760;28;19914;-78
2024/02/18 00:52:50;;;;;;;;;;;4.90;99.90;;;;;;4982511;28;19924;-78
2024/02/18 00:55:16;;;;;;;;;;;4.90;99.90;;;;;;4980222;28;19913;-78
2024/02/18 00:57:42;;;;;;;;;;;4.90;99.90;;;;;;4986221;28;20249;-78
2024/02/18 01:00:10;;;;;;;;;;;4.90;99.90;;;;;;4984423;28;19947;-78
2024/02/18 01:02:35;;;;;;;;;;;5.00;99.90;;;;;;4977955;28;19922;-78
2024/02/18 01:05:01;;;;;;;;;;;5.00;99.90;;;;;;4974426;28;19971;-78
2024/02/18 01:07:27;;;;;;;;;;;5.00;99.90;;;;;;4962762;28;19917;-79
2024/02/18 01:09:52;;;;;;;;;;;5.00;99.90;;;;;;4975235;28;20337;-79
2024/02/18 01:12:18;;;;;;;;;;;5.10;99.90;;;;;;4973421;28;19922;-79
2024/02/18 01:14:44;;;;;;;;;;;5.10;99.90;;;;;;4986100;28;20016;-79
2024/02/18 01:17:10;;;;;;;;;;;5.10;99.90;;;;;;4962039;28;19914;-79
2024/02/18 01:19:36;;;;;;;;;;;5.20;99.90;;;;;;4965311;28;20234;-79
2024/02/18 01:22:02;;;;;;;;;;;5.20;99.90;;;;;;4980565;28;19918;-79
2024/02/18 01:24:27;;;;;;;;;;;5.30;99.90;;;;;;4973148;28;19921;-79
2024/02/18 01:26:53;;;;;;;;;;;5.30;99.90;;;;;;4965548;28;19921;-78
2024/02/18 01:29:19;;;;;;;;;;;5.30;99.90;;;;;;4994762;28;19915;-79
2024/02/18 01:31:44;;;;;;;;;;;5.30;99.90;;;;;;4964533;28;19918;-78
2024/02/18 01:34:10;;;;;;;;;;;5.30;99.90;;;;;;4994757;28;19922;-78
2024/02/18 01:36:36;;;;;;;;;;;5.30;99.90;;;;;;4989031;28;19980;-78
2024/02/18 01:39:01;;;;;;;;;;;5.30;99.90;;;;;;5006288;28;20529;-78
2024/02/18 01:41:27;;;;;;;;;;;5.30;99.90;;;;;;4966925;28;20559;-78
2024/02/18 01:43:53;;;;;;;;;;;5.30;99.90;;;;;;4981759;28;20409;-78
2024/02/18 01:46:19;;;;;;;;;;;5.40;99.90;;;;;;4951652;28;19914;-79
2024/02/18 01:48:45;;;;;;;;;;;5.40;99.90;;;;;;4972667;28;19918;-77
2024/02/18 01:51:11;;;;;;;;;;;5.40;99.90;;;;;;4978349;28;19968;-78
2024/02/18 01:53:36;;;;;;;;;;;5.40;99.90;;;;;;4980009;28;20020;-77
2024/02/18 01:56:02;;;;;;;;;;;5.40;99.90;;;;;;4979055;28;19913;-78
2024/02/18 01:58:28;;;;;;;;;;;5.40;99.90;;;;;;4998200;28;19926;-78
2024/02/18 02:00:57;;;;;;;;;;;5.40;99.90;;;;;;4997140;28;19940;-75
2024/02/18 02:03:22;;;;;;;;;;;5.40;99.90;;;;;;4997419;28;20118;-75
2024/02/18 02:05:48;;;;;;;;;;;5.40;99.90;;;;;;4987701;28;19963;-75
2024/02/18 02:08:14;;;;;;;;;;;5.40;99.90;;;;;;5013221;28;19976;-75
2024/02/18 02:10:39;;;;;;;;;;;5.50;99.90;;;;;;4977523;28;19929;-75
2024/02/18 02:13:05;;;;;;;;;;;5.50;99.90;;;;;;4978142;28;19917;-74
2024/02/18 02:15:31;;;;;;;;;;;5.50;99.90;;;;;;4965461;28;20012;-74
2024/02/18 02:17:58;;;;;;;;;;;5.60;99.90;;;;;;4984856;28;20568;-75
2024/02/18 02:20:24;;;;;;;;;;;5.60;99.90;;;;;;4981429;28;19913;-74
2024/02/18 02:22:50;;;;;;;;;;;5.60;99.90;;;;;;4997583;28;19917;-74
2024/02/18 02:25:15;;;;;;;;;;;5.60;99.90;;;;;;4967655;28;19929;-74
2024/02/18 02:27:41;;;;;;;;;;;5.70;99.90;;;;;;5000626;28;19924;-74
2024/02/18 02:30:08;;;;;;;;;;;5.70;99.90;;;;;;4981479;28;19913;-74
2024/02/18 02:32:35;;;;;;;;;;;5.80;99.90;;;;;;5030359;28;19925;-78
2024/02/18 02:35:02;;;;;;;;;;;5.80;99.90;;;;;;5020017;28;20008;-78
2024/02/18 02:37:28;;;;;;;;;;;5.80;99.90;;;;;;4994537;28;19920;-78
2024/02/18 02:39:54;;;;;;;;;;;5.70;99.90;;;;;;4980912;28;19924;-78
2024/02/18 02:42:19;;;;;;;;;;;5.80;99.90;;;;;;4981016;28;19921;-78
2024/02/18 02:44:45;;;;;;;;;;;5.80;99.90;;;;;;4993231;28;19945;-78
2024/02/18 02:47:11;;;;;;;;;;;5.80;99.90;;;;;;4998043;28;20250;-78
2024/02/18 02:49:36;;;;;;;;;;;5.80;99.90;;;;;;4965587;28;19917;-79
2024/02/18 02:52:02;;;;;;;;;;;5.80;99.90;;;;;;4991643;28;20405;-79
2024/02/18 02:54:28;;;;;;;;;;;5.80;99.90;;;;;;5010497;28;19913;-79
2024/02/18 02:56:56;;;;;;;;;;;5.80;99.90;;;;;;5013521;28;19917;-78
2024/02/18 02:59:22;;;;;;;;;;;5.70;99.90;;;;;;4975828;28;19921;-77
2024/02/18 03:01:48;;;;;;;;;;;5.70;99.90;;;;;;4998220;28;19921;-78
2024/02/18 03:04:14;;;;;;;;;;;5.60;99.90;;;;;;4987656;28;19921;-78
2024/02/18 03:06:40;;;;;;;;;;;5.60;99.90;;;;;;5026494;28;20032;-77
2024/02/18 03:09:05;;;;;;;;;;;5.60;99.90;;;;;;5000491;28;20017;-77
2024/02/18 03:11:31;;;;;;;;;;;5.60;99.90;;;;;;4984142;28;19932;-77
2024/02/18 03:13:56;;;;;;;;;;;5.60;99.90;;;;;;5032043;28;19925;-78
2024/02/18 03:16:22;;;;;;;;;;;5.60;99.90;;;;;;4999820;28;20526;-77
2024/02/18 03:18:48;;;;;;;;;;;5.60;99.90;;;;;;4988984;28;19914;-77
2024/02/18 03:21:13;;;;;;;;;;;5.60;99.90;;;;;;5015940;28;19968;-77
2024/02/18 03:23:39;;;;;;;;;;;5.60;99.90;;;;;;4985218;28;19918;-78
2024/02/18 03:26:05;;;;;;;;;;;5.60;99.90;;;;;;4981828;28;19917;-77
2024/02/18 03:28:30;;;;;;;;;;;5.60;99.90;;;;;;5011952;28;20028;-77
2024/02/18 03:30:57;;;;;;;;;;;5.60;99.90;;;;;;4995176;28;19917;-77
2024/02/18 03:33:23;;;;;;;;;;;5.60;99.90;;;;;;4963243;28;19926;-74
2024/02/18 03:35:49;;;;;;;;;;;5.60;99.90;;;;;;4956190;28;19917;-74
2024/02/18 03:38:14;;;;;;;;;;;5.60;99.90;;;;;;4966436;28;19924;-74
2024/02/18 03:40:40;;;;;;;;;;;5.60;99.90;;;;;;4983048;28;20008;-74
2024/02/18 03:43:06;;;;;;;;;;;5.60;99.90;;;;;;4979415;28;19918;-74
2024/02/18 03:45:31;;;;;;;;;;;5.60;99.90;;;;;;4980255;28;19929;-75
2024/02/18 03:47:57;;;;;;;;;;;5.60;99.90;;;;;;4987202;28;19922;-75
2024/02/18 03:50:23;;;;;;;;;;;5.50;99.90;;;;;;4972052;28;19922;-75
2024/02/18 03:52:48;;;;;;;;;;;5.50;99.90;;;;;;4986091;28;19937;-75
2024/02/18 03:55:14;;;;;;;;;;;5.50;99.90;;;;;;4964010;28;19952;-75
2024/02/18 03:57:41;;;;;;;;;;;5.50;99.90;;;;;;4989792;28;19937;-75
2024/02/18 04:00:07;;;;;;;;;;;5.40;99.90;;;;;;4983761;28;20627;-75
2024/02/18 04:02:34;;;;;;;;;;;5.40;99.90;;;;;;4983084;28;19921;-74
2024/02/18 04:04:59;;;;;;;;;;;5.40;99.90;;;;;;4994408;28;20350;-74
2024/02/18 04:07:28;;;;;;;;;;;5.40;99.90;;;;;;4983423;28;19972;-74
2024/02/18 04:09:54;;;;;;;;;;;5.40;99.90;;;;;;4962346;28;19964;-74
2024/02/18 04:12:20;;;;;;;;;;;5.40;99.90;;;;;;4996771;28;19957;-75
2024/02/18 04:14:45;;;;;;;;;;;5.40;99.90;;;;;;4999228;28;19917;-75
2024/02/18 04:17:11;;;;;;;;;;;5.40;99.90;;;;;;4998527;28;19945;-75
2024/02/18 04:19:37;;;;;;;;;;;5.40;99.90;;;;;;4962731;28;19964;-75
2024/02/18 04:22:03;;;;;;;;;;;5.40;99.90;;;;;;4996918;28;20019;-75
2024/02/18 04:24:28;;;;;;;;;;;5.40;99.90;;;;;;4984918;28;20515;-75
2024/02/18 04:26:54;;;;;;;;;;;5.40;99.90;;;;;;5000514;28;19925;-75
2024/02/18 04:29:19;;;;;;;;;;;5.40;99.90;;;;;;4997568;28;20001;-74
2024/02/18 04:31:45;;;;;;;;;;;5.40;99.90;;;;;;4992400;28;19952;-75
2024/02/18 04:34:11;;;;;;;;;;;5.40;99.90;;;;;;4967965;28;19918;-75
2024/02/18 04:36:36;;;;;;;;;;;5.40;99.90;;;;;;4986467;28;19952;-75
2024/02/18 04:39:02;;;;;;;;;;;5.40;99.90;;;;;;5001648;28;19913;-75
2024/02/18 04:41:28;;;;;;;;;;;5.30;99.90;;;;;;4982054;28;20246;-75
2024/02/18 04:43:53;;;;;;;;;;;5.40;99.90;;;;;;4998320;28;20055;-75
2024/02/18 04:46:19;;;;;;;;;;;5.30;99.90;;;;;;4966065;28;19917;-75
2024/02/18 04:48:45;;;;;;;;;;;5.30;99.90;;;;;;4965915;28;19921;-75
2024/02/18 04:51:11;;;;;;;;;;;5.30;99.90;;;;;;4981907;28;19948;-75
2024/02/18 04:53:37;;;;;;;;;;;5.20;99.90;;;;;;4988440;28;19922;-75
2024/02/18 04:56:03;;;;;;;;;;;5.20;99.90;;;;;;5014173;28;19979;-75
2024/02/18 04:58:29;;;;;;;;;;;5.20;99.90;;;;;;4983857;28;19972;-75
2024/02/18 05:00:54;;;;;;;;;;;5.20;99.90;;;;;;4982886;28;20319;-74
2024/02/18 05:03:21;;;;;;;;;;;5.10;99.90;;;;;;4998372;28;20456;-74
2024/02/18 05:05:46;;;;;;;;;;;5.10;99.90;;;;;;4998710;28;19917;-74
2024/02/18 05:08:12;;;;;;;;;;;5.20;99.90;;;;;;5023770;28;20652;-74
2024/02/18 05:10:38;;;;;;;;;;;5.20;99.90;;;;;;4975400;28;19921;-74
2024/02/18 05:13:04;;;;;;;;;;;5.20;99.90;;;;;;4981743;28;19949;-75
2024/02/18 05:15:29;;;;;;;;;;;5.10;99.90;;;;;;4998351;28;20281;-75
2024/02/18 05:17:55;;;;;;;;;;;5.10;99.90;;;;;;4997852;28;19929;-75
2024/02/18 05:20:21;;;;;;;;;;;5.10;99.90;;;;;;4972526;28;19940;-75
2024/02/18 05:22:46;;;;;;;;;;;5.20;99.90;;;;;;4975740;28;19913;-75
2024/02/18 05:25:12;;;;;;;;;;;5.20;99.90;;;;;;5015525;28;19932;-75
2024/02/18 05:27:38;;;;;;;;;;;5.20;99.90;;;;;;4997684;28;20350;-75
2024/02/18 05:30:04;;;;;;;;;;;5.20;99.90;;;;;;4975790;28;19917;-75
2024/02/18 05:32:30;;;;;;;;;;;5.20;99.90;;;;;;4988812;28;20000;-75
2024/02/18 05:34:55;;;;;;;;;;;5.20;99.90;;;;;;4989334;28;20010;-75
2024/02/18 05:37:21;;;;;;;;;;;5.20;99.90;;;;;;4978694;28;19948;-75
2024/02/18 05:39:47;;;;;;;;;;;5.30;99.90;;;;;;4981422;28;19924;-74
2024/02/18 05:42:12;;;;;;;;;;;5.30;99.90;;;;;;4977841;28;20140;-75
2024/02/18 05:44:38;;;;;;;;;;;5.30;99.90;;;;;;4980911;28;19932;-75
2024/02/18 05:47:04;;;;;;;;;;;5.30;99.90;;;;;;4978440;28;19924;-75
2024/02/18 05:49:29;;;;;;;;;;;5.30;99.90;;;;;;4978946;28;20013;-75
2024/02/18 05:51:55;;;;;;;;;;;5.30;99.90;;;;;;4996526;28;19980;-75
2024/02/18 05:54:22;;;;;;;;;;;5.30;99.90;;;;;;5002601;28;19913;-75
2024/02/18 05:56:48;;;;;;;;;;;5.30;99.90;;;;;;4989972;28;20388;-75
2024/02/18 05:59:14;;;;;;;;;;;5.30;99.90;;;;;;5013372;28;19917;-76
2024/02/18 06:01:40;;;;;;;;;;;5.30;99.90;;;;;;4990201;28;19987;-75
2024/02/18 06:04:05;;;;;;;;;;;5.30;99.90;;;;;;4997737;28;20394;-75
2024/02/18 06:06:32;;;;;;;;;;;5.30;99.90;;;;;;4965536;28;19939;-74
2024/02/18 06:08:57;;;;;;;;;;;5.30;99.90;;;;;;4989748;28;19941;-74
2024/02/18 06:11:23;;;;;;;;;;;5.30;99.90;;;;;;4964099;28;19985;-76
2024/02/18 06:13:48;;;;;;;;;;;5.30;99.90;;;;;;5004642;28;19929;-75
2024/02/18 06:16:14;;;;;;;;;;;5.30;99.90;;;;;;5004132;28;19914;-75
2024/02/18 06:18:44;;;;;;;;;;;5.30;99.90;;;;;;4995380;28;20273;-75
2024/02/18 06:21:18;;;;;;;;;;;5.30;99.90;;;;;;4955304;28;19949;-76
2024/02/18 06:23:44;;;;;;;;;;;5.30;99.90;;;;;;4995160;28;19914;-76
2024/02/18 06:26:09;;;;;;;;;;;5.30;99.90;;;;;;4997524;28;19924;-76
2024/02/18 06:28:35;;;;;;;;;;;5.30;99.90;;;;;;4997415;28;19976;-75
2024/02/18 06:31:03;;;;;;;;;;;5.30;99.90;;;;;;4981244;28;19913;-76
2024/02/18 06:33:29;;;;;;;;;;;5.30;99.90;;;;;;4986920;28;19949;-79
2024/02/18 06:35:55;;;;;;;;;;;5.30;99.90;;;;;;4964565;28;20020;-79
2024/02/18 06:38:21;;;;;;;;;;;5.40;99.90;;;;;;5011280;28;19918;-78
2024/02/18 06:40:47;;;;;;;;;;;5.40;99.90;;;;;;4968447;28;19917;-79
2024/02/18 06:43:13;;;;;;;;;;;5.40;99.90;;;;;;4949690;28;19926;-79
2024/02/18 06:45:38;;;;;;;;;;;5.40;99.90;;;;;;4998986;28;20405;-78
2024/02/18 06:48:04;;;;;;;;;;;5.40;99.90;;;;;;4985584;28;19924;-79
2024/02/18 06:50:31;;;;;;;;;;;5.50;99.90;;;;;;4984453;28;19918;-79
2024/02/18 06:52:57;;;;;;;;;;;5.50;99.90;;;;;;4983079;28;20627;-77
2024/02/18 06:55:22;;;;;;;;;;;5.50;99.90;;;;;;4994236;28;19923;-79
2024/02/18 06:57:51;;;;;;;;;;;5.60;99.90;;;;;;4991646;28;19914;-77
2024/02/18 07:00:20;;;;;;;;;;;5.60;99.90;;;;;;4983362;28;20055;-78
2024/02/18 07:02:45;;;;;;;;;;;5.60;99.90;;;;;;4985190;28;19920;-77
2024/02/18 07:05:11;;;;;;;;;;;5.60;99.90;;;;;;5001031;28;19921;-78
2024/02/18 07:07:37;;;;;;;;;;;5.70;99.90;;;;;;4990914;28;19917;-77
2024/02/18 07:10:05;;;;;;;;;;;5.70;99.90;;;;;;5000849;28;19917;-78
2024/02/18 07:12:32;;;;;;;;;;;5.70;99.90;;;;;;4994402;28;19956;-78
2024/02/18 07:14:57;;;;;;;;;;;5.80;99.90;;;;;;5011538;28;20227;-78
2024/02/18 07:17:23;;;;;;;;;;;5.80;99.90;;;;;;4984816;28;19924;-78
2024/02/18 07:19:50;;;;;;;;;;;5.90;99.90;;;;;;4984529;28;19918;-78
2024/02/18 07:22:17;;;;;;;;;;;5.90;99.90;;;;;;4985640;28;20314;-78
2024/02/18 07:24:43;;;;;;;;;;;5.90;99.90;;;;;;5005870;28;20361;-78
2024/02/18 07:27:08;;;;;;;;;;;5.90;99.90;;;;;;4983850;28;19917;-78
2024/02/18 07:29:36;;;;;;;;;;;6.00;99.90;;;;;;4967874;28;19924;-78
2024/02/18 07:32:02;;;;;;;;;;;6.00;99.90;;;;;;4984049;28;20258;-78
2024/02/18 07:34:28;;;;;;;;;;;6.00;99.90;;;;;;4983531;28;19925;-78
2024/02/18 07:36:54;;;;;;;;;;;6.00;99.90;;;;;;4970057;28;20318;-78
2024/02/18 07:39:20;;;;;;;;;;;6.10;99.90;;;;;;5013491;28;19922;-78
2024/02/18 07:41:46;;;;;;;;;;;6.10;99.90;;;;;;4983629;28;19925;-78
2024/02/18 07:44:18;;;;;;;;;;;6.10;99.90;;;;;;5033189;28;19917;-78
2024/02/18 07:46:45;;;;;;;;;;;6.20;99.90;;;;;;4990769;28;19914;-77
2024/02/18 07:49:13;;;;;;;;;;;6.20;99.90;;;;;;4980877;28;20412;-74
2024/02/18 07:51:38;;;;;;;;;;;6.30;99.90;;;;;;4989003;28;19983;-75
2024/02/18 07:54:07;;;;;;;;;;;6.30;99.90;;;;;;4990866;28;19991;-74
2024/02/18 07:56:33;;;;;;;;;;;6.30;99.90;;;;;;4971244;28;20353;-74
2024/02/18 07:58:58;;;;;;;;;;;6.40;99.90;;;;;;4984145;28;19917;-74
2024/02/18 08:01:25;;;;;;;;;;;6.40;99.90;;;;;;4981868;28;20067;-74
2024/02/18 08:03:51;;;;;;;;;;;6.40;99.90;;;;;;4983759;28;19992;-78
2024/02/18 08:06:16;;;;;;;;;;;6.40;99.90;;;;;;4983920;28;20591;-78
2024/02/18 08:08:42;;;;;;;;;;;6.50;99.90;;;;;;4972553;28;19975;-78
2024/02/18 08:11:07;;;;;;;;;;;6.50;99.90;;;;;;4982907;28;20012;-78
2024/02/18 08:13:33;;;;;;;;;;;6.60;99.90;;;;;;4982940;28;19925;-78
2024/02/18 08:15:59;;;;;;;;;;;6.60;99.90;;;;;;4982842;28;20053;-78
2024/02/18 08:18:24;;;;;;;;;;;6.70;99.90;;;;;;4990684;28;19964;-78
2024/02/18 08:20:51;;;;;;;;;;;6.70;99.90;;;;;;4982319;28;20324;-78
2024/02/18 08:23:16;;;;;;;;;;;6.80;99.90;;;;;;4989777;28;19935;-75
2024/02/18 08:25:42;;;;;;;;;;;6.80;99.90;;;;;;4968298;28;19926;-75
2024/02/18 08:28:08;;;;;;;;;;;6.80;99.90;;;;;;4990227;28;19913;-75
2024/02/18 08:30:33;;;;;;;;;;;6.90;99.90;;;;;;4990509;28;19921;-75
2024/02/18 08:32:59;;;;;;;;;;;7.00;99.90;;;;;;4983044;28;19957;-76
2024/02/18 08:35:24;;;;;;;;;;;7.00;99.90;;;;;;4991323;28;19914;-75
2024/02/18 08:37:50;;;;;;;;;;;7.10;99.90;;;;;;4968865;28;20009;-75
2024/02/18 08:40:16;;;;;;;;;;;7.10;99.90;;;;;;4961305;28;20341;-76
2024/02/18 08:42:42;;;;;;;;;;;7.20;99.90;;;;;;4994897;28;19933;-76
2024/02/18 08:45:10;;;;;;;;;;;7.20;99.90;;;;;;5006154;28;19928;-76
2024/02/18 08:47:36;;;;;;;;;;;7.30;99.90;;;;;;4998491;28;20056;-77
2024/02/18 08:50:02;;;;;;;;;;;7.40;99.90;;;;;;4982822;28;19984;-77
2024/02/18 08:52:27;;;;;;;;;;;7.40;99.90;;;;;;4992500;28;19948;-76
2024/02/18 08:54:53;;;;;;;;;;;7.50;99.90;;;;;;4972812;28;20016;-76
2024/02/18 08:57:19;;;;;;;;;;;7.50;99.90;;;;;;4998302;28;19913;-76
2024/02/18 08:59:44;;;;;;;;;;;7.60;99.90;;;;;;4975438;28;19921;-76
2024/02/18 09:02:10;;;;;;;;;;;7.70;99.90;;;;;;4981114;28;19913;-76
2024/02/18 09:04:36;;;;;;;;;;;7.70;99.90;;;;;;4998324;28;19921;-77
2024/02/18 09:07:02;;;;;;;;;;;7.80;99.90;;;;;;4990765;28;19920;-76
2024/02/18 09:09:27;;;;;;;;;;;7.90;99.90;;;;;;4970918;28;19956;-79
2024/02/18 09:11:55;;;;;;;;;;;7.90;99.90;;;;;;4981350;28;19948;-78
2024/02/18 09:14:21;;;;;;;;;;;7.90;99.90;;;;;;4977949;28;20548;-79
2024/02/18 09:16:47;;;;;;;;;;;8.00;99.90;;;;;;4962248;28;19921;-79
2024/02/18 09:19:13;;;;;;;;;;;8.00;99.90;;;;;;4980991;28;20173;-79
2024/02/18 09:21:51;;;;;;;;;;;8.10;99.90;;;;;;4978115;28;20377;-79
2024/02/18 09:24:23;;;;;;;;;;;8.20;99.90;;;;;;4979061;28;19922;-79
2024/02/18 09:26:51;;;;;;;;;;;8.20;99.90;;;;;;4978714;28;20346;-79
2024/02/18 09:29:17;;;;;;;;;;;8.20;99.90;;;;;;4998395;28;19913;-76
2024/02/18 09:31:43;;;;;;;;;;;8.30;99.90;;;;;;4981615;28;19980;-75
2024/02/18 09:34:09;;;;;;;;;;;8.30;99.90;;;;;;4997334;28;19917;-75
2024/02/18 09:36:37;;;;;;;;;;;8.40;99.90;;;;;;4984246;28;19991;-75
2024/02/18 09:39:03;;;;;;;;;;;8.40;99.90;;;;;;4987000;28;19925;-75
2024/02/18 09:41:32;;;;;;;;;;;8.50;99.90;;;;;;5014693;28;20027;-75
2024/02/18 09:44:00;;;;;;;;;;;8.50;99.90;;;;;;4995613;28;19922;-75
2024/02/18 09:46:26;;;;;;;;;;;8.60;99.90;;;;;;4995434;28;19944;-75
2024/02/18 09:48:52;;;;;;;;;;;8.60;99.90;;;;;;4996367;28;19917;-75
2024/02/18 09:51:30;;;;;;;;;;;;;;;;;;;;;
2024/02/18 09:53:59;;;;;;;;;;;8.70;99.90;;;;;;4986760;28;20017;-75
2024/02/18 09:56:28;;;;;;;;;;;8.90;99.90;;;;;;4969742;28;20314;-74
2024/02/18 09:58:56;;;;;;;;;;;8.80;99.90;;;;;;4979790;28;19926;-75
2024/02/18 10:01:22;;;;;;;;;;;8.80;99.90;;;;;;4979017;28;19918;-74
2024/02/18 10:03:48;;;;;;;;;;;8.90;99.90;;;;;;4977486;28;20269;-74
2024/02/18 10:06:20;;;;;;;;;;;8.90;99.90;;;;;;4978130;28;19918;-75
2024/02/18 10:08:54;;;;;;;;;;;8.90;99.90;;;;;;4977783;28;20000;-74
2024/02/18 10:11:25;;;;;;;;;;;8.90;99.90;;;;;;4981467;28;20004;-78
2024/02/18 10:13:58;;;;;;;;;;;9.00;99.90;;;;;;4983194;28;19918;-79
2024/02/18 10:16:43;;;;;;;;;;;9.00;99.90;;;;;;4977494;28;20006;-80
2024/02/18 10:19:30;;;;;;;;;;;9.00;99.90;;;;;;5004687;28;20223;-76
2024/02/18 10:22:00;;;;;;;;;;;9.10;99.90;;;;;;4985051;28;19917;-76
2024/02/18 10:24:39;;;;;;;;;;;9.10;99.90;;;;;;4961300;28;19925;-76
2024/02/18 10:27:10;;;;;;;;;;;9.20;99.90;;;;;;5017491;28;19918;-75
2024/02/18 10:29:43;;;;;;;;;;;9.20;99.90;;;;;;4974127;28;19981;-76
2024/02/18 10:32:09;;;;;;;;;;;9.30;99.90;;;;;;4989495;28;20449;-75
2024/02/18 10:34:44;;;;;;;;;;;9.40;99.90;;;;;;4980989;28;19914;-79
2024/02/18 10:37:16;;;;;;;;;;;9.40;99.90;;;;;;5011147;28;19922;-79
2024/02/18 10:39:49;;;;;;;;;;;9.50;99.90;;;;;;4970991;28;19928;-79
2024/02/18 10:42:15;;;;;;;;;;;9.60;99.90;;;;;;4987439;28;19918;-76
2024/02/18 10:44:41;;;;;;;;;;;9.60;99.90;;;;;;4959312;28;19929;-78
2024/02/18 10:47:29;;;;;;;;;;;9.80;99.90;;;;;;4975730;28;20312;-78
2024/02/18 10:50:08;;;;;;;;;;;9.90;99.90;;;;;;4999566;28;19932;-80
2024/02/18 10:52:46;;;;;;;;;;;10.10;99.90;;;;;;4997859;28;20451;-79
2024/02/18 10:55:24;;;;;;;;;;;10.40;99.90;;;;;;4978877;28;19917;-76
2024/02/18 10:57:50;;;;;;;;;;;10.60;99.90;;;;;;4980271;28;19948;-76
2024/02/18 11:00:24;;;;;;;;;;;10.90;99.90;;;;;;4979330;28;19948;-75
2024/02/18 11:03:07;;;;;;;;;;;11.00;99.90;;;;;;4968213;28;19977;-79
2024/02/18 11:05:42;;;;;;;;;;;11.20;99.90;;;;;;4968163;28;19933;-80
2024/02/18 11:08:11;;;;;;;;;;;11.30;99.90;;;;;;4978304;28;19917;-80
2024/02/18 11:10:39;;;;;;;;;;;11.60;99.90;;;;;;4965985;28;19924;-79
2024/02/18 11:13:28;;;;;;;;;;;11.70;99.90;;;;;;4960475;28;19921;-79
2024/02/18 11:15:54;;;;;;;;;;;12.00;99.90;;;;;;4980319;28;19921;-76
2024/02/18 11:18:20;;;;;;;;;;;12.40;99.90;;;;;;4999002;28;19968;-80
2024/02/18 11:20:54;;;;;;;;;;;12.30;99.90;;;;;;4965814;28;19921;-80
2024/02/18 11:23:19;;;;;;;;;;;12.40;99.90;;;;;;4992268;28;19952;-77
2024/02/18 11:25:51;;;;;;;;;;;12.40;99.90;;;;;;4983990;28;19968;-78
2024/02/18 11:28:30;;;;;;;;;;;12.40;99.90;;;;;;4988436;28;19917;-79
2024/02/18 11:30:56;;;;;;;;;;;12.40;99.90;;;;;;4982597;28;19914;-79
2024/02/18 11:33:24;;;;;;;;;;;12.20;99.90;;;;;;5000129;28;19913;-79
2024/02/18 11:36:08;;;;;;;;;;;12.00;99.90;;;;;;4988711;28;19956;-80
2024/02/18 11:38:34;;;;;;;;;;;11.90;99.90;;;;;;4967328;28;19980;-78
2024/02/18 11:41:20;;;;;;;;;;;11.90;99.90;;;;;;4964254;28;19925;-75
2024/02/18 11:43:49;;;;;;;;;;;11.90;99.90;;;;;;4988622;28;19918;-76
2024/02/18 11:46:20;;;;;;;;;;;11.90;99.90;;;;;;4963853;28;19917;-74
2024/02/18 11:48:49;;;;;;;;;;;11.90;99.90;;;;;;4984924;28;19913;-74
2024/02/18 11:51:17;;;;;;;;;;;11.80;99.90;;;;;;4998648;28;20302;-75
2024/02/18 11:53:56;;;;;;;;;;;11.80;99.90;;;;;;4995774;28;19917;-76
2024/02/18 11:56:35;;;;;;;;;;;;;;;;;;;;;
2024/02/18 11:59:21;;;;;;;;;;;11.60;99.90;;;;;;5011610;28;19917;-75
2024/02/18 12:01:47;;;;;;;;;;;11.60;99.90;;;;;;4954828;28;19914;-75
2024/02/18 12:04:15;;;;;;;;;;;11.50;99.90;;;;;;4976531;28;19980;-75
2024/02/18 12:07:03;;;;;;;;;;;11.50;99.90;;;;;;4986127;28;19917;-75
2024/02/18 12:09:29;;;;;;;;;;;11.50;99.90;;;;;;4976268;28;19956;-75
2024/02/18 12:11:57;;;;;;;;;;;11.40;99.90;;;;;;4972366;28;19969;-79
2024/02/18 12:14:22;;;;;;;;;;;11.40;99.90;;;;;;4998886;28;19913;-79
2024/02/18 12:16:51;;;;;;;;;;;11.40;99.90;;;;;;4979171;28;19920;-78
2024/02/18 12:19:18;;;;;;;;;;;11.40;99.90;;;;;;4993377;28;19924;-79
2024/02/18 12:21:53;;;;;;;;;;;11.40;99.90;;;;;;4981650;28;20349;-79
2024/02/18 12:24:19;;;;;;;;;;;11.40;99.90;;;;;;4983451;28;20012;-79
2024/02/18 12:26:44;;;;;;;;;;;11.40;99.90;;;;;;4982186;28;19993;-79
2024/02/18 12:29:10;;;;;;;;;;;11.40;99.90;;;;;;4989946;28;20020;-79
2024/02/18 12:31:37;;;;;;;;;;;11.40;99.90;;;;;;4964776;28;19925;-78
2024/02/18 12:34:03;;;;;;;;;;;11.40;99.90;;;;;;4981598;28;19921;-79
2024/02/18 12:36:29;;;;;;;;;;;11.50;99.90;;;;;;5011986;28;19918;-79
2024/02/18 12:38:54;;;;;;;;;;;11.50;99.90;;;;;;4981120;28;19924;-79
2024/02/18 12:41:20;;;;;;;;;;;11.50;99.90;;;;;;4997922;28;19925;-78
2024/02/18 12:52:30;;;;;;;;;;;11.80;99.90;;;;;;5293792;23;19936;-82
2024/02/18 12:55:03;;;;;;;;;;;11.80;99.90;;;;;;4986618;28;19914;-78
2024/02/18 12:57:29;;;;;;;;;;;11.90;99.90;;;;;;4974405;28;19914;-78
2024/02/18 12:59:55;;;;;;;;;;;11.90;99.90;;;;;;4973926;28;19954;-77
2024/02/18 13:02:23;;;;;;;;;;;11.90;99.90;;;;;;4991463;28;19917;-77
2024/02/18 13:04:55;;;;;;;;;;;11.90;99.90;;;;;;4992596;28;19930;-79
2024/02/18 13:07:23;;;;;;;;;;;11.90;99.90;;;;;;4957519;28;19940;-77
2024/02/18 13:09:53;;;;;;;;;;;11.90;99.90;;;;;;4957858;28;19922;-78
2024/02/18 13:12:20;;;;;;;;;;;11.90;99.90;;;;;;4961001;28;19918;-78
2024/02/18 13:14:47;;;;;;;;;;;11.80;99.90;;;;;;4961222;28;19918;-79
2024/02/18 13:17:12;;;;;;;;;;;11.90;99.90;;;;;;4969301;28;19918;-78
2024/02/18 13:19:43;;;;;;;;;;;11.80;99.90;;;;;;4992572;28;20622;-79
2024/02/18 13:22:09;;;;;;;;;;;11.80;99.90;;;;;;4960752;28;19917;-78
2024/02/18 13:24:35;;;;;;;;;;;11.90;99.90;;;;;;5008141;28;19957;-78
2024/02/18 13:27:06;;;;;;;;;;;11.80;99.90;;;;;;4942560;28;19956;-79
2024/02/18 13:29:32;;;;;;;;;;;11.80;99.90;;;;;;4975311;28;19941;-78
2024/02/18 13:31:58;;;;;;;;;;;11.80;99.90;;;;;;4960856;28;19922;-79
2024/02/18 13:34:35;;;;;;;;;;;11.80;99.90;;;;;;4992519;28;19976;-79
2024/02/18 13:37:02;;;;;;;;;;;11.80;99.90;;;;;;4978713;28;20343;-78
2024/02/18 13:39:51;;;;;;;;;;;11.80;99.90;;;;;;4993388;28;19971;-79
2024/02/18 13:42:17;;;;;;;;;;;11.70;99.90;;;;;;4998609;28;19950;-79
2024/02/18 13:44:45;;;;;;;;;;;11.70;99.90;;;;;;4981642;28;20389;-79
2024/02/18 13:47:20;;;;;;;;;;;11.70;99.90;;;;;;4992869;28;19917;-79
2024/02/18 13:49:46;;;;;;;;;;;11.70;99.90;;;;;;4976023;28;20405;-78
2024/02/18 13:52:21;;;;;;;;;;;11.60;99.90;;;;;;4971137;28;20562;-78
2024/02/18 13:54:49;;;;;;;;;;;11.60;99.90;;;;;;4976916;28;19914;-78
2024/02/18 13:57:15;;;;;;;;;;;11.60;99.90;;;;;;4964736;28;20025;-78
2024/02/18 13:59:56;;;;;;;;;;;11.50;99.90;;;;;;4989319;28;20012;-77
2024/02/18 14:02:24;;;;;;;;;;;11.40;99.90;;;;;;4958660;28;20004;-79
2024/02/18 14:04:53;;;;;;;;;;;11.40;99.90;;;;;;4964138;28;19921;-79
2024/02/18 14:07:38;;;;;;;;;;;11.40;99.90;;;;;;4990796;28;19913;-78
2024/02/18 14:10:16;;;;;;;;;;;11.30;99.90;;;;;;4974563;28;19918;-79
2024/02/18 14:12:48;;;;;;;;;;;11.30;99.90;;;;;;4989011;28;19928;-78
2024/02/18 14:15:14;;;;;;;;;;;11.20;99.90;;;;;;4975660;28;20001;-79
2024/02/18 14:17:49;;;;;;;;;;;11.10;99.90;;;;;;4956140;28;20013;-79
2024/02/18 14:20:15;;;;;;;;;;;11.10;99.90;;;;;;4981433;28;20022;-79
2024/02/18 14:22:50;;;;;;;;;;;11.10;99.90;;;;;;4959688;28;20020;-79
2024/02/18 14:25:20;;;;;;;;;;;11.10;99.90;;;;;;4992891;28;20361;-79
2024/02/18 14:27:55;;;;;;;;;;;11.00;99.90;;;;;;4974254;28;19925;-79
2024/02/18 14:30:21;;;;;;;;;;;11.00;99.90;;;;;;4983390;28;19925;-79
2024/02/18 14:33:22;;;;;;;;;;;10.90;99.90;;;;;;4958633;28;20331;-79
2024/02/18 14:35:47;;;;;;;;;;;10.90;99.90;;;;;;4993419;28;19949;-79
2024/02/18 14:38:13;;;;;;;;;;;10.80;99.90;;;;;;4991443;28;19918;-79
2024/02/18 14:40:40;;;;;;;;;;;10.80;99.90;;;;;;4989601;28;20403;-79